Time;durP1;ratioP1;P1;durP2;ratioP2;P2;SDS_P1;SDS_P2;PMS_P1;PMS_P2;Temp;Humidity;BMP_temperature;BMP_pressure;BME280_temperature;BME280_humidity;BME280_pressure;Samples;Min_cycle;Max_cycle;Signal;HPM_P1;HPM_P2
2022/06/01 00:01:50;;;;;;;13.55;5.95;;;9.10;99.90;;;;;;5035832;28;20028;-93
2022/06/01 00:04:18;;;;;;;8.60;3.30;;;9.20;99.90;;;;;;5036296;28;20041;-95
2022/06/01 00:06:44;;;;;;;5.80;2.95;;;9.20;99.90;;;;;;5036428;28;20064;-94
2022/06/01 00:09:09;;;;;;;10.82;4.03;;;9.20;99.90;;;;;;5037173;28;20043;-94
2022/06/01 00:11:35;;;;;;;5.40;3.10;;;9.20;99.90;;;;;;5036416;28;20408;-94
2022/06/01 00:14:01;;;;;;;5.32;3.38;;;9.20;99.90;;;;;;5035876;28;20537;-92
2022/06/01 00:16:26;;;;;;;12.75;4.30;;;9.20;99.90;;;;;;5036251;28;20032;-93
2022/06/01 00:18:52;;;;;;;6.05;2.88;;;9.20;99.90;;;;;;5035909;28;20471;-93
2022/06/01 00:21:18;;;;;;;4.75;2.30;;;9.20;99.90;;;;;;5036194;28;20029;-94
2022/06/01 00:23:43;;;;;;;4.57;2.40;;;9.20;99.90;;;;;;5036732;28;20037;-94
2022/06/01 00:26:09;;;;;;;5.55;2.92;;;9.20;99.90;;;;;;5047648;28;20060;-93
2022/06/01 00:28:35;;;;;;;5.78;2.35;;;9.20;99.90;;;;;;5052383;28;20034;-94
2022/06/01 00:31:03;;;;;;;4.60;2.90;;;9.20;99.90;;;;;;5054224;28;20124;-92
2022/06/01 00:33:30;;;;;;;6.25;3.78;;;9.20;99.90;;;;;;5056151;28;20068;-91
2022/06/01 00:35:56;;;;;;;4.00;3.10;;;9.20;99.90;;;;;;5055811;28;20025;-94
2022/06/01 00:38:22;;;;;;;6.85;2.80;;;9.20;99.90;;;;;;5040568;28;20029;-95
2022/06/01 00:40:48;;;;;;;6.05;3.03;;;9.20;99.90;;;;;;5034467;28;20037;-95
2022/06/01 00:43:29;;;;;;;4.72;2.97;;;9.20;99.90;;;;;;5034198;28;20026;-94
2022/06/01 00:45:54;;;;;;;3.13;2.35;;;9.20;99.90;;;;;;5037413;28;20032;-93
2022/06/01 00:48:26;;;;;;;4.47;2.50;;;9.20;99.90;;;;;;5041157;28;20040;-94
2022/06/01 00:50:52;;;;;;;7.28;2.72;;;9.20;99.90;;;;;;5035028;28;20061;-94
2022/06/01 00:53:24;;;;;;;5.10;2.60;;;9.20;99.90;;;;;;5035127;28;20032;-94
2022/06/01 00:56:05;;;;;;;6.20;2.65;;;9.20;99.90;;;;;;5036711;28;20030;-95
2022/06/01 00:58:37;;;;;;;5.38;2.40;;;9.20;99.90;;;;;;5039543;28;20029;-95
2022/06/01 01:01:08;;;;;;;5.43;2.67;;;9.20;99.90;;;;;;5038280;28;20380;-94
2022/06/01 01:03:35;;;;;;;;;;;9.20;99.90;;;;;;5040034;28;20530;-95
2022/06/01 01:06:23;;;;;;;3.85;2.35;;;9.20;99.90;;;;;;5039322;28;19913;-95
2022/06/01 01:08:49;;;;;;;2.90;2.13;;;9.20;99.90;;;;;;5038516;28;20529;-94
2022/06/01 01:11:18;;;;;;;5.57;2.35;;;9.20;99.90;;;;;;5039466;28;20113;-92
2022/06/01 01:13:48;;;;;;;2.75;1.70;;;9.20;99.90;;;;;;5048319;28;20077;-92
2022/06/01 01:16:16;;;;;;;3.30;2.60;;;9.20;99.90;;;;;;5045166;28;20049;-95
2022/06/01 01:18:44;;;;;;;7.13;2.60;;;9.20;99.90;;;;;;5039424;28;20033;-95
2022/06/01 01:21:19;;;;;;;4.25;2.00;;;9.30;99.90;;;;;;5038471;28;20116;-94
2022/06/01 01:23:56;;;;;;;6.40;2.50;;;9.30;99.90;;;;;;5040466;28;20043;-94
2022/06/01 01:26:23;;;;;;;6.80;2.60;;;9.30;99.90;;;;;;5039024;28;20036;-94
2022/06/01 01:28:49;;;;;;;6.78;2.65;;;9.30;99.90;;;;;;5037857;28;20124;-94
2022/06/01 01:31:19;;;;;;;5.65;2.92;;;9.30;99.90;;;;;;5038339;28;20071;-94
2022/06/01 01:33:50;;;;;;;4.20;2.47;;;9.30;99.90;;;;;;5039461;28;20049;-95
2022/06/01 01:36:20;;;;;;;5.22;2.17;;;9.30;99.90;;;;;;5023272;28;20036;-94
2022/06/01 01:39:01;;;;;;;2.50;2.30;;;9.30;99.90;;;;;;5038004;28;20040;-94
2022/06/01 01:41:53;;;;;;;;;;;9.20;99.90;;;;;;5040933;28;20021;-96
2022/06/01 01:44:34;;;;;;;5.88;2.33;;;9.20;99.90;;;;;;5036964;28;19905;-96
2022/06/01 01:47:00;;;;;;;5.15;2.58;;;9.20;99.90;;;;;;5038735;28;20470;-93
2022/06/01 01:49:30;;;;;;;6.43;2.30;;;9.20;99.90;;;;;;5037976;28;20052;-94
2022/06/01 01:51:59;;;;;;;6.90;2.40;;;9.20;99.90;;;;;;5045204;28;20026;-93
2022/06/01 01:54:48;;;;;;;4.10;2.50;;;9.10;99.90;;;;;;5047478;28;20391;-94
2022/06/01 01:57:33;;;;;;;6.00;2.33;;;9.10;99.90;;;;;;5050894;28;20022;-94
2022/06/01 02:00:23;;;;;;;5.03;2.60;;;9.10;99.90;;;;;;5051595;28;20067;-94
2022/06/01 02:03:05;;;;;;;6.80;2.92;;;9.00;99.90;;;;;;5039258;28;20026;-94
2022/06/01 02:08:23;;;;;;;6.18;3.17;;;9.00;99.90;;;;;;5043063;28;20044;-94
2022/06/01 02:13:37;;;;;;;4.20;2.50;;;9.00;99.90;;;;;;5041646;28;20211;-95
2022/06/01 02:16:03;;;;;;;3.70;2.60;;;8.90;99.90;;;;;;5038685;28;20029;-94
2022/06/01 02:18:36;;;;;;;8.13;2.95;;;8.90;99.90;;;;;;5040495;28;20037;-94
2022/06/01 02:21:07;;;;;;;5.32;2.70;;;8.90;99.90;;;;;;5039493;28;20052;-94
2022/06/01 02:23:34;;;;;;;6.85;2.67;;;8.90;99.90;;;;;;5038056;28;20022;-95
2022/06/01 02:26:01;;;;;;;3.60;2.13;;;8.90;99.90;;;;;;5037860;28;20035;-94
2022/06/01 02:28:28;;;;;;;5.40;3.13;;;8.90;99.90;;;;;;5036512;28;20036;-95
2022/06/01 02:30:55;;;;;;;6.38;2.90;;;8.80;99.90;;;;;;5038952;28;20021;-95
2022/06/01 02:33:31;;;;;;;5.15;3.00;;;8.80;99.90;;;;;;5044735;28;20037;-93
2022/06/01 02:35:58;;;;;;;7.07;3.00;;;8.80;99.90;;;;;;5053045;28;20033;-94
2022/06/01 02:38:31;;;;;;;3.17;2.60;;;8.70;99.90;;;;;;5043707;28;20029;-93
2022/06/01 02:40:59;;;;;;;3.08;2.05;;;8.60;99.90;;;;;;5038169;28;20138;-94
2022/06/01 02:43:26;;;;;;;4.75;2.55;;;8.60;99.90;;;;;;5037691;28;20025;-94
2022/06/01 02:45:52;;;;;;;6.50;2.97;;;8.60;99.90;;;;;;5037957;28;20116;-94
2022/06/01 02:48:18;;;;;;;4.53;3.03;;;8.60;99.90;;;;;;5037293;28;20053;-95
2022/06/01 02:50:43;;;;;;;4.55;2.58;;;8.50;99.90;;;;;;5036421;28;20022;-93
2022/06/01 02:53:10;;;;;;;3.97;2.38;;;8.50;99.90;;;;;;5035184;28;20112;-94
2022/06/01 02:55:36;;;;;;;6.10;2.78;;;8.50;99.90;;;;;;5035255;28;20034;-95
2022/06/01 02:58:03;;;;;;;6.28;2.97;;;8.50;99.90;;;;;;5034861;28;20092;-95
2022/06/01 03:00:35;;;;;;;3.72;2.50;;;8.50;99.90;;;;;;5034962;28;20116;-94
2022/06/01 03:03:03;;;;;;;5.95;3.08;;;8.50;99.90;;;;;;5035069;28;20506;-94
2022/06/01 03:05:32;;;;;;;6.07;2.97;;;8.50;99.90;;;;;;5034956;28;20043;-95
2022/06/01 03:07:58;;;;;;;4.13;2.67;;;8.50;99.90;;;;;;5034903;28;20037;-94
2022/06/01 03:10:24;;;;;;;5.13;3.15;;;8.50;99.90;;;;;;5035104;28;20037;-93
2022/06/01 03:12:50;;;;;;;6.47;2.85;;;8.50;99.90;;;;;;5034369;28;20022;-94
2022/06/01 03:15:18;;;;;;;3.92;3.03;;;8.40;99.90;;;;;;5034788;28;20034;-94
2022/06/01 03:17:50;;;;;;;5.15;2.80;;;8.40;99.90;;;;;;5034128;28;20443;-93
2022/06/01 03:20:18;;;;;;;3.88;3.22;;;8.30;99.90;;;;;;5034986;28;20498;-94
2022/06/01 03:22:44;;;;;;;5.25;3.10;;;8.30;99.90;;;;;;5034910;28;20031;-94
2022/06/01 03:25:15;;;;;;;5.32;2.97;;;8.30;99.90;;;;;;5035249;28;20459;-94
2022/06/01 03:27:41;;;;;;;2.97;2.70;;;8.30;99.90;;;;;;5036647;28;20450;-94
2022/06/01 03:30:10;;;;;;;6.10;3.63;;;8.30;99.90;;;;;;5036147;28;20042;-94
2022/06/01 03:32:36;;;;;;;6.32;3.42;;;8.30;99.90;;;;;;5034366;28;20037;-94
2022/06/01 03:35:03;;;;;;;9.68;4.07;;;8.30;99.90;;;;;;5034838;28;20041;-95
2022/06/01 03:37:31;;;;;;;8.75;3.80;;;8.20;99.90;;;;;;5035034;28;20148;-95
2022/06/01 03:39:57;;;;;;;6.55;3.90;;;8.20;99.90;;;;;;5035773;28;20501;-94
2022/06/01 03:42:25;;;;;;;7.93;3.88;;;8.20;99.90;;;;;;5034167;28;20026;-96
2022/06/01 03:47:38;;;;;;;6.45;3.88;;;8.20;99.90;;;;;;5035964;28;20036;-93
2022/06/01 03:50:05;;;;;;;7.30;3.80;;;8.20;99.90;;;;;;5034292;28;20037;-94
2022/06/01 03:52:30;;;;;;;6.90;3.97;;;8.30;99.90;;;;;;5036627;28;20284;-94
2022/06/01 03:54:56;;;;;;;2.92;2.67;;;8.20;99.90;;;;;;5050886;28;20318;-94
2022/06/01 03:57:22;;;;;;;3.75;2.30;;;8.30;99.90;;;;;;5037300;28;20057;-95
2022/06/01 03:59:47;;;;;;;5.78;3.67;;;8.30;99.90;;;;;;5035210;28;20029;-94
2022/06/01 04:02:13;;;;;;;3.85;3.40;;;8.30;99.90;;;;;;5036928;28;20037;-95
2022/06/01 04:04:39;;;;;;;8.82;3.72;;;8.40;99.90;;;;;;5035758;28;20533;-95
2022/06/01 04:07:07;;;;;;;7.97;3.83;;;8.40;99.90;;;;;;5035716;28;20052;-94
2022/06/01 04:09:33;;;;;;;3.15;2.50;;;8.40;99.90;;;;;;5035972;28;20037;-93
2022/06/01 04:11:58;;;;;;;6.78;3.17;;;8.40;99.90;;;;;;5036072;28;20029;-96
2022/06/01 04:14:25;;;;;;;2.85;2.42;;;8.40;99.90;;;;;;5036747;28;20052;-95
2022/06/01 04:16:51;;;;;;;4.00;3.33;;;8.40;99.90;;;;;;5037653;28;20032;-95
2022/06/01 04:19:17;;;;;;;4.35;3.55;;;8.50;99.90;;;;;;5044205;28;20021;-94
2022/06/01 04:21:46;;;;;;;2.92;2.42;;;8.50;99.90;;;;;;5051130;28;20048;-94
2022/06/01 04:24:15;;;;;;;3.90;2.90;;;8.50;99.90;;;;;;5053384;28;20026;-92
2022/06/01 04:26:41;;;;;;;5.15;2.65;;;8.60;99.90;;;;;;5056345;28;20032;-93
2022/06/01 04:29:07;;;;;;;6.65;3.50;;;8.60;99.90;;;;;;5046179;28;20071;-94
2022/06/01 04:31:33;;;;;;;4.88;3.63;;;8.60;99.90;;;;;;5054754;28;20030;-95
2022/06/01 04:33:59;;;;;;;5.13;3.53;;;8.60;99.90;;;;;;5042309;28;20064;-93
2022/06/01 04:36:25;;;;;;;7.85;3.65;;;8.60;99.90;;;;;;5042044;28;20053;-94
2022/06/01 04:38:51;;;;;;;8.40;3.97;;;8.70;99.90;;;;;;5043454;28;20036;-95
2022/06/01 04:41:17;;;;;;;11.63;4.13;;;8.70;99.90;;;;;;5046152;28;20056;-95
2022/06/01 04:43:43;;;;;;;5.65;3.53;;;8.70;99.90;;;;;;5056597;28;20215;-95
2022/06/01 04:46:09;;;;;;;7.65;4.63;;;8.70;99.90;;;;;;5042915;28;20025;-94
2022/06/01 04:48:35;;;;;;;8.02;4.25;;;8.80;99.90;;;;;;5042115;28;20113;-93
2022/06/01 04:51:01;;;;;;;10.82;4.25;;;8.80;99.90;;;;;;5042226;28;20124;-95
2022/06/01 04:53:27;;;;;;;6.35;2.80;;;8.80;99.90;;;;;;5041786;28;20395;-94
2022/06/01 04:55:53;;;;;;;9.20;4.32;;;8.80;99.90;;;;;;5040093;28;20029;-95
2022/06/01 04:58:19;;;;;;;5.85;4.28;;;8.80;99.90;;;;;;5040208;28;20036;-93
2022/06/01 05:00:45;;;;;;;10.90;4.20;;;8.80;99.90;;;;;;5040818;28;20031;-94
2022/06/01 05:03:11;;;;;;;5.38;3.72;;;8.80;99.90;;;;;;5040948;28;20022;-94
2022/06/01 05:05:39;;;;;;;7.50;4.22;;;8.90;99.90;;;;;;5039797;28;20167;-96
2022/06/01 05:08:06;;;;;;;6.28;2.60;;;8.90;99.90;;;;;;5039501;28;20017;-96
2022/06/01 05:10:33;;;;;;;8.18;4.60;;;9.00;99.90;;;;;;5040093;28;20033;-96
2022/06/01 05:12:59;;;;;;;6.20;3.78;;;9.00;99.90;;;;;;5048351;28;20020;-94
2022/06/01 05:15:25;;;;;;;6.40;3.95;;;9.00;99.90;;;;;;5049496;28;20044;-95
2022/06/01 05:17:50;;;;;;;4.80;4.13;;;9.00;99.90;;;;;;5042473;28;20192;-94
2022/06/01 05:20:20;;;;;;;2.60;2.00;;;9.10;99.90;;;;;;5040900;28;20029;-93
2022/06/01 05:22:51;;;;;;;4.50;3.67;;;9.10;99.90;;;;;;5040520;28;20041;-96
2022/06/01 05:25:17;;;;;;;6.53;3.78;;;9.20;99.90;;;;;;5039768;28;20040;-94
2022/06/01 05:27:43;;;;;;;5.78;4.47;;;9.20;99.90;;;;;;5039812;28;20036;-95
2022/06/01 05:30:09;;;;;;;8.70;4.30;;;9.20;99.90;;;;;;5038527;28;20410;-95
2022/06/01 05:32:35;;;;;;;7.72;4.60;;;9.30;99.90;;;;;;5038593;28;20451;-94
2022/06/01 05:35:01;;;;;;;10.20;4.15;;;9.40;99.90;;;;;;5038112;28;20053;-95
2022/06/01 05:37:26;;;;;;;11.68;4.57;;;9.40;99.90;;;;;;5038384;28;20120;-94
2022/06/01 05:39:52;;;;;;;10.80;6.13;;;9.40;99.90;;;;;;5039062;28;20079;-94
2022/06/01 05:42:18;;;;;;;10.38;5.30;;;9.40;99.90;;;;;;5036525;28;20097;-93
2022/06/01 05:44:44;;;;;;;7.90;4.57;;;9.50;99.90;;;;;;5037047;28;20406;-94
2022/06/01 05:47:10;;;;;;;7.47;4.18;;;9.50;99.90;;;;;;5037321;28;20112;-92
2022/06/01 05:49:36;;;;;;;8.88;3.75;;;9.50;99.90;;;;;;5037064;28;20073;-93
2022/06/01 05:52:02;;;;;;;8.38;4.60;;;9.60;99.90;;;;;;5037287;28;20418;-95
2022/06/01 05:54:27;;;;;;;5.43;3.88;;;9.60;99.90;;;;;;5038378;28;20371;-94
2022/06/01 05:56:55;;;;;;;9.48;3.72;;;9.60;99.90;;;;;;5040088;28;20025;-94
2022/06/01 05:59:21;;;;;;;7.38;4.45;;;9.60;99.90;;;;;;5022962;28;20033;-94
2022/06/01 06:01:49;;;;;;;6.63;3.78;;;9.60;99.90;;;;;;5040966;28;20395;-94
2022/06/01 06:04:15;;;;;;;3.60;3.08;;;9.70;99.90;;;;;;5037383;28;20034;-93
2022/06/01 06:06:41;;;;;;;6.32;3.85;;;9.80;99.90;;;;;;5039682;28;20114;-94
2022/06/01 06:09:09;;;;;;;6.95;3.60;;;9.70;99.90;;;;;;5037339;28;20044;-93
2022/06/01 06:11:37;;;;;;;5.15;3.47;;;9.80;99.90;;;;;;5038828;28;20125;-94
2022/06/01 06:14:04;;;;;;;5.47;3.40;;;9.80;99.90;;;;;;5043820;28;20110;-95
2022/06/01 06:16:35;;;;;;;6.93;3.05;;;9.90;99.90;;;;;;5045958;28;20028;-95
2022/06/01 06:19:03;;;;;;;4.70;3.47;;;9.90;99.90;;;;;;5045127;28;20079;-94
2022/06/01 06:21:30;;;;;;;4.15;3.10;;;9.90;99.90;;;;;;5039070;28;20025;-96
2022/06/01 06:24:06;;;;;;;6.45;2.83;;;10.00;99.90;;;;;;5040598;28;20041;-96
2022/06/01 06:26:33;;;;;;;7.97;3.03;;;10.00;99.90;;;;;;5037549;28;20033;-93
2022/06/01 06:29:05;;;;;;;4.60;2.88;;;10.00;99.90;;;;;;5038271;28;20121;-94
2022/06/01 06:31:31;;;;;;;8.85;3.72;;;10.20;99.90;;;;;;5043759;28;20100;-94
2022/06/01 06:33:57;;;;;;;5.10;3.20;;;10.20;99.90;;;;;;5048945;28;20168;-94
2022/06/01 06:36:23;;;;;;;6.43;2.67;;;10.20;99.90;;;;;;5039098;28;20172;-93
2022/06/01 06:38:49;;;;;;;4.38;3.65;;;10.20;99.90;;;;;;5038392;28;20056;-94
2022/06/01 06:41:15;;;;;;;7.68;2.45;;;10.30;99.90;;;;;;5037730;28;20111;-94
2022/06/01 06:43:42;;;;;;;4.95;2.38;;;10.30;99.90;;;;;;5037180;28;20025;-95
2022/06/01 06:46:11;;;;;;;3.88;2.38;;;10.30;99.90;;;;;;5036085;28;20022;-95
2022/06/01 06:48:37;;;;;;;3.00;2.60;;;10.40;99.90;;;;;;5037849;28;20057;-96
2022/06/01 06:51:03;;;;;;;3.08;2.42;;;10.40;99.90;;;;;;5037348;28;20028;-94
2022/06/01 06:53:29;;;;;;;3.10;1.98;;;10.40;99.90;;;;;;5037589;28;20041;-94
2022/06/01 06:55:55;;;;;;;3.22;2.30;;;10.50;99.90;;;;;;5038547;28;20037;-95
2022/06/01 06:58:22;;;;;;;8.07;2.20;;;10.60;99.90;;;;;;5039182;28;20026;-92
2022/06/01 07:00:48;;;;;;;6.28;2.42;;;10.60;99.90;;;;;;5036546;28;20041;-95
2022/06/01 07:03:16;;;;;;;4.07;2.53;;;10.70;99.90;;;;;;5036123;28;20332;-95
2022/06/01 07:08:27;;;;;;;3.90;2.30;;;10.80;99.90;;;;;;5037218;28;20040;-95
2022/06/01 07:10:54;;;;;;;3.83;2.28;;;10.80;99.90;;;;;;5037376;28;20021;-95
2022/06/01 07:13:21;;;;;;;3.00;2.15;;;10.90;99.90;;;;;;5037094;28;20025;-94
2022/06/01 07:15:47;;;;;;;4.68;2.05;;;11.00;99.90;;;;;;5037907;28;20044;-94
2022/06/01 07:18:14;;;;;;;3.47;2.20;;;11.00;99.90;;;;;;5035115;28;20021;-93
2022/06/01 07:20:39;;;;;;;3.67;2.00;;;11.10;99.90;;;;;;5036101;28;20036;-95
2022/06/01 07:23:07;;;;;;;4.35;2.45;;;11.10;99.90;;;;;;5039200;28;20127;-95
2022/06/01 07:25:32;;;;;;;3.53;2.38;;;11.20;99.90;;;;;;5046443;28;20026;-92
2022/06/01 07:27:59;;;;;;;9.35;2.80;;;11.30;99.90;;;;;;5043482;28;20371;-95
2022/06/01 07:30:25;;;;;;;4.85;2.47;;;11.30;99.90;;;;;;5043722;28;20052;-94
2022/06/01 07:32:52;;;;;;;3.58;2.30;;;11.40;99.90;;;;;;5035313;28;20049;-94
2022/06/01 07:35:19;;;;;;;4.43;2.53;;;11.50;99.90;;;;;;5035245;28;20038;-95
2022/06/01 07:43:17;;;;;;;9.43;4.55;;;11.60;99.90;;;;;;5039106;28;20052;-92
2022/06/01 07:45:47;;;;;;;5.90;3.70;;;11.60;99.90;;;;;;5034074;28;20120;-93
2022/06/01 07:48:13;;;;;;;5.43;3.47;;;11.70;99.90;;;;;;5034983;28;20021;-93
2022/06/01 07:50:40;;;;;;;9.63;3.40;;;11.80;99.90;;;;;;5034806;28;20041;-94
2022/06/01 07:53:08;;;;;;;9.38;3.38;;;11.80;99.90;;;;;;5045530;28;20101;-94
2022/06/01 07:55:36;;;;;;;7.00;2.42;;;11.90;99.90;;;;;;5045862;28;20026;-96
2022/06/01 07:58:03;;;;;;;4.63;2.60;;;11.90;99.90;;;;;;5037394;28;20033;-95
2022/06/01 08:00:31;;;;;;;4.78;2.10;;;12.00;99.90;;;;;;5037078;28;20029;-94
2022/06/01 08:02:57;;;;;;;2.42;1.80;;;12.10;99.90;;;;;;5037725;28;20112;-95
2022/06/01 08:05:23;;;;;;;2.78;1.73;;;12.20;99.90;;;;;;5039171;28;20025;-95
2022/06/01 08:07:49;;;;;;;6.05;1.60;;;12.30;99.90;;;;;;5048191;28;20049;-96
2022/06/01 08:10:19;;;;;;;3.35;1.75;;;12.40;99.90;;;;;;5043228;28;20041;-96
2022/06/01 08:15:30;;;;;;;3.88;2.03;;;12.60;99.90;;;;;;5045966;28;20055;-94
2022/06/01 08:17:57;;;;;;;3.13;1.40;;;12.70;99.90;;;;;;5045921;28;20128;-95
2022/06/01 08:20:26;;;;;;;4.95;1.55;;;12.70;99.90;;;;;;5052339;28;20132;-95
2022/06/01 08:22:52;;;;;;;2.95;1.45;;;12.80;99.90;;;;;;5050662;28;20037;-96
2022/06/01 08:25:20;;;;;;;6.05;1.75;;;12.80;99.90;;;;;;5047291;28;20022;-94
2022/06/01 08:27:47;;;;;;;4.35;1.70;;;12.90;99.90;;;;;;5043445;28;20088;-94
2022/06/01 08:30:16;;;;;;;1.60;1.50;;;12.90;99.90;;;;;;5040375;28;20033;-94
2022/06/01 08:32:42;;;;;;;1.75;1.50;;;13.00;99.90;;;;;;5040501;28;20061;-94
2022/06/01 08:35:12;;;;;;;8.32;1.60;;;13.00;99.90;;;;;;5041302;28;20033;-92
2022/06/01 08:37:37;;;;;;;7.72;1.70;;;13.00;99.90;;;;;;5038849;28;20022;-93
2022/06/01 08:40:06;;;;;;;3.45;1.58;;;13.00;99.90;;;;;;5041426;28;20029;-92
2022/06/01 08:42:48;;;;;;;2.17;1.52;;;13.00;99.90;;;;;;5043853;28;20018;-92
2022/06/01 08:45:35;;;;;;;;;;;;;;;;;;;;;
2022/06/01 08:48:04;;;;;;;3.10;1.90;;;13.00;99.90;;;;;;5055783;28;20080;-92
2022/06/01 08:50:58;;;;;;;2.42;1.80;;;13.00;99.90;;;;;;5055443;28;20036;-92
2022/06/01 08:53:29;;;;;;;4.63;1.70;;;13.10;99.90;;;;;;5048574;28;20018;-93
2022/06/01 08:56:19;;;;;;;2.83;1.60;;;13.30;99.90;;;;;;5052197;28;20507;-93
2022/06/01 08:59:03;;;;;;;3.08;1.40;;;13.30;99.90;;;;;;5054386;28;20025;-93
2022/06/01 09:02:11;;;;;;;4.93;1.70;;;13.50;99.90;;;;;;5052503;28;20037;-93
2022/06/01 09:05:18;;;;;;;;;;;;;;;;;;;;;
2022/06/01 09:08:03;;;;;;;3.05;1.42;;;14.00;99.90;;;;;;5049661;28;20454;-93
2022/06/01 09:10:41;;;;;;;2.65;1.48;;;14.30;99.90;;;;;;5040810;28;20105;-93
2022/06/01 09:13:14;;;;;;;1.60;1.30;;;14.60;99.90;;;;;;5042444;28;20017;-93
2022/06/01 09:15:49;;;;;;;2.35;1.65;;;14.70;99.90;;;;;;5046706;28;20033;-94
2022/06/01 09:18:26;;;;;;;2.17;1.27;;;14.70;99.90;;;;;;5051442;28;20037;-95
2022/06/01 09:24:10;;;;;;;0.90;0.90;;;14.70;99.90;;;;;;5051249;28;20113;-95
2022/06/01 09:27:02;;;;;;;3.17;1.00;;;14.60;99.90;;;;;;5048320;28;20026;-93
2022/06/01 09:29:35;;;;;;;2.45;1.58;;;14.50;99.90;;;;;;5048236;28;20049;-94
2022/06/01 09:32:41;;;;;;;2.33;0.98;;;14.40;99.90;;;;;;5047276;28;20040;-95
2022/06/01 09:35:38;;;;;;;;;;;;;;;;;;;;;
2022/06/01 09:38:03;;;;;;;1.92;1.10;;;14.20;99.90;;;;;;5049711;28;20409;-93
2022/06/01 09:40:48;;;;;;;1.58;1.20;;;14.30;99.90;;;;;;5050284;28;20518;-91
2022/06/01 09:43:49;;;;;;;3.17;1.40;;;14.30;99.90;;;;;;5051562;28;20037;-94
2022/06/01 09:46:36;;;;;;;1.55;0.95;;;14.30;99.90;;;;;;5050650;28;20029;-93
2022/06/01 09:49:29;;;;;;;2.78;1.10;;;14.30;99.90;;;;;;5051373;28;20037;-94
2022/06/01 09:52:37;;;;;;;2.25;1.00;;;14.30;99.90;;;;;;5049642;28;20029;-92
2022/06/01 09:55:15;;;;;;;1.80;1.08;;;14.30;99.90;;;;;;5048459;28;20044;-94
2022/06/01 09:58:01;;;;;;;2.90;1.00;;;14.40;99.60;;;;;;5047229;28;20391;-93
2022/06/01 10:06:57;;;;;;;2.15;0.95;;;14.50;98.90;;;;;;5047372;28;20219;-95
2022/06/01 10:09:37;;;;;;;0.77;0.77;;;14.50;98.10;;;;;;5048549;28;20044;-93
2022/06/01 10:12:29;;;;;;;2.97;1.45;;;14.40;97.90;;;;;;5041250;28;20026;-92
2022/06/01 10:14:56;;;;;;;1.15;0.93;;;14.40;97.70;;;;;;5044185;28;20095;-94
2022/06/01 10:17:33;;;;;;;3.08;1.20;;;14.40;97.70;;;;;;5037856;28;20475;-94
2022/06/01 10:20:22;;;;;;;1.35;1.23;;;14.40;97.70;;;;;;5037423;28;20025;-93
2022/06/01 10:23:09;;;;;;;2.40;1.23;;;14.40;97.70;;;;;;5039157;28;20134;-92
2022/06/01 10:25:58;;;;;;;1.35;1.00;;;14.40;97.70;;;;;;5039123;28;20060;-94
2022/06/01 10:29:15;;;;;;;2.40;1.17;;;14.50;97.90;;;;;;5038007;28;20033;-95
2022/06/01 10:31:58;;;;;;;1.85;1.08;;;14.60;97.30;;;;;;5031401;28;20038;-92
2022/06/01 10:34:45;;;;;;;1.80;1.00;;;14.50;97.00;;;;;;5050165;28;20053;-94
2022/06/01 10:37:32;;;;;;;2.30;1.25;;;14.60;96.80;;;;;;5044212;28;20022;-95
2022/06/01 10:40:11;;;;;;;2.30;1.17;;;14.60;96.60;;;;;;5041972;28;20037;-94
2022/06/01 10:43:18;;;;;;;2.78;2.25;;;14.70;96.40;;;;;;5040109;28;20196;-95
2022/06/01 10:45:50;;;;;;;1.80;0.82;;;14.70;96.30;;;;;;5038830;28;20052;-95
2022/06/01 10:48:23;;;;;;;1.30;1.20;;;14.80;96.10;;;;;;5038778;28;20025;-93
2022/06/01 10:51:19;;;;;;;1.65;0.98;;;14.90;95.90;;;;;;5048809;28;20101;-94
2022/06/01 10:54:04;;;;;;;1.10;1.00;;;15.00;95.80;;;;;;5046202;28;20017;-91
2022/06/01 10:56:30;;;;;;;4.97;0.90;;;15.20;95.20;;;;;;5044346;28;20064;-94
2022/06/01 10:59:03;;;;;;;1.35;1.10;;;15.50;94.80;;;;;;5044007;28;20486;-93
2022/06/01 11:01:56;;;;;;;2.28;0.93;;;15.70;94.20;;;;;;5048820;28;20021;-92
2022/06/01 11:04:22;;;;;;;1.90;0.70;;;15.90;93.00;;;;;;5044217;28;20040;-93
2022/06/01 11:07:12;;;;;;;1.83;0.90;;;16.00;92.50;;;;;;5046026;28;20053;-94
2022/06/01 11:09:44;;;;;;;1.47;0.70;;;16.10;91.40;;;;;;5045976;28;20095;-94
2022/06/01 11:12:30;;;;;;;1.02;0.70;;;16.00;91.10;;;;;;5047630;28;20272;-96
2022/06/01 11:15:29;;;;;;;4.32;0.75;;;16.10;90.90;;;;;;5049984;28;20037;-93
2022/06/01 11:18:41;;;;;;;1.48;0.85;;;16.10;90.80;;;;;;5043647;28;20033;-93
2022/06/01 11:21:16;;;;;;;2.10;1.40;;;16.00;90.50;;;;;;5048069;28;20049;-92
2022/06/01 11:24:00;;;;;;;13.30;5.95;;;16.00;90.40;;;;;;5053797;28;20089;-93
2022/06/01 11:26:59;;;;;;;2.38;1.48;;;16.00;90.20;;;;;;5048418;28;20036;-92
2022/06/01 11:30:01;;;;;;;1.05;0.88;;;15.90;90.10;;;;;;5049025;28;20094;-93
2022/06/01 11:33:16;;;;;;;1.67;1.17;;;15.70;90.20;;;;;;5050029;28;20044;-91
2022/06/01 11:35:55;;;;;;;2.28;0.98;;;15.60;90.50;;;;;;5030895;28;20087;-92
2022/06/01 11:38:32;;;;;;;2.38;1.17;;;15.60;90.80;;;;;;5049865;28;20026;-92
2022/06/01 11:41:09;;;;;;;2.10;0.82;;;15.50;91.00;;;;;;5031594;28;20036;-90
2022/06/01 11:43:48;;;;;;;1.55;0.55;;;15.40;91.30;;;;;;5054544;28;20068;-94
2022/06/01 11:46:31;;;;;;;2.08;0.80;;;15.30;91.70;;;;;;5053468;28;20107;-94
2022/06/01 11:49:10;;;;;;;1.33;1.00;;;15.30;92.00;;;;;;5036684;28;20053;-93
2022/06/01 11:51:38;;;;;;;3.22;0.95;;;15.40;92.20;;;;;;5051528;28;20026;-92
2022/06/01 11:54:16;;;;;;;2.45;0.90;;;15.40;92.20;;;;;;5032412;28;20048;-94
2022/06/01 11:56:48;;;;;;;1.98;0.90;;;15.40;92.00;;;;;;5047929;28;20018;-93
2022/06/01 11:59:18;;;;;;;1.65;0.93;;;15.50;91.90;;;;;;5032861;28;20029;-94
2022/06/01 12:01:45;;;;;;;1.65;0.90;;;15.60;91.80;;;;;;5030378;28;20060;-95
2022/06/01 12:04:20;;;;;;;2.58;1.00;;;15.80;91.80;;;;;;5045303;28;20022;-92
2022/06/01 12:07:08;;;;;;;2.38;0.80;;;15.80;91.30;;;;;;5042615;28;20128;-92
2022/06/01 12:09:49;;;;;;;1.40;0.80;;;15.90;90.80;;;;;;5048620;28;20041;-92
2022/06/01 12:12:36;;;;;;;1.05;0.90;;;16.00;90.50;;;;;;5047022;28;20018;-95
2022/06/01 12:15:35;;;;;;;1.70;0.90;;;16.20;90.20;;;;;;5050422;28;20025;-94
2022/06/01 12:18:19;;;;;;;1.05;0.73;;;16.30;89.30;;;;;;5050208;28;20022;-94
2022/06/01 12:20:49;;;;;;;0.82;0.70;;;16.40;88.40;;;;;;5049990;28;20021;-96
2022/06/01 12:28:52;;;;;;;1.92;1.20;;;16.40;86.50;;;;;;5045909;28;20039;-95
2022/06/01 12:31:46;;;;;;;1.15;0.88;;;16.30;86.60;;;;;;5039998;28;20053;-95
2022/06/01 12:34:25;;;;;;;2.33;0.88;;;16.20;86.90;;;;;;5035033;28;20037;-93
2022/06/01 12:37:08;;;;;;;2.33;1.20;;;16.00;87.00;;;;;;5042769;28;20073;-92
2022/06/01 12:39:46;;;;;;;1.33;1.00;;;15.90;87.30;;;;;;5042353;28;20093;-93
2022/06/01 12:42:21;;;;;;;3.65;1.05;;;15.90;88.10;;;;;;5044150;28;20072;-93
2022/06/01 12:44:51;;;;;;;1.77;1.20;;;15.80;88.80;;;;;;5041434;28;20140;-92
2022/06/01 12:47:29;;;;;;;1.85;1.35;;;15.80;89.00;;;;;;5047169;28;20033;-93
2022/06/01 12:49:55;;;;;;;3.60;1.23;;;15.70;89.10;;;;;;5048355;28;20044;-94
2022/06/01 12:52:26;;;;;;;1.92;0.90;;;15.80;89.60;;;;;;5051532;28;20026;-94
2022/06/01 12:55:01;;;;;;;3.85;1.10;;;15.80;88.70;;;;;;5055895;28;20089;-93
2022/06/01 12:57:31;;;;;;;0.60;0.60;;;16.00;88.00;;;;;;5054893;28;20097;-92
2022/06/01 13:00:01;;;;;;;1.17;0.45;;;16.20;87.60;;;;;;5057415;28;20041;-92
2022/06/01 13:02:28;;;;;;;0.60;0.50;;;16.50;86.50;;;;;;5048439;28;20029;-94
2022/06/01 13:04:56;;;;;;;0.90;0.60;;;16.90;84.70;;;;;;5045338;28;20120;-91
2022/06/01 13:07:36;;;;;;;2.22;0.50;;;17.50;82.70;;;;;;5047605;28;20018;-95
2022/06/01 13:10:09;;;;;;;2.45;0.70;;;17.90;79.60;;;;;;5045456;28;20033;-94
2022/06/01 13:12:38;;;;;;;0.60;0.60;;;18.10;77.70;;;;;;5049511;28;20075;-93
2022/06/01 13:15:22;;;;;;;0.90;0.50;;;18.20;76.50;;;;;;5041873;28;20033;-92
2022/06/01 13:18:13;;;;;;;0.95;0.43;;;18.10;74.20;;;;;;5047311;28;20050;-93
2022/06/01 13:20:46;;;;;;;2.15;0.95;;;18.10;74.30;;;;;;5047146;28;20089;-93
2022/06/01 13:23:18;;;;;;;2.33;0.75;;;18.00;73.80;;;;;;5046222;28;20033;-94
2022/06/01 13:25:45;;;;;;;1.98;0.70;;;18.00;73.80;;;;;;5050192;28;20033;-95
2022/06/01 13:28:12;;;;;;;2.03;0.73;;;18.00;74.10;;;;;;5055912;28;20109;-93
2022/06/01 13:30:39;;;;;;;1.77;1.05;;;18.00;74.40;;;;;;5058575;28;20029;-91
2022/06/01 13:33:18;;;;;;;1.55;0.75;;;18.00;74.70;;;;;;5045208;28;20037;-93
2022/06/01 13:35:56;;;;;;;2.13;0.98;;;18.10;74.70;;;;;;5045523;28;20033;-93
2022/06/01 13:38:32;;;;;;;2.20;1.00;;;18.20;74.70;;;;;;5048368;28;20022;-93
2022/06/01 13:41:12;;;;;;;2.05;1.10;;;18.10;74.60;;;;;;5044010;28;20036;-93
2022/06/01 13:43:47;;;;;;;2.63;1.15;;;18.10;74.70;;;;;;5048180;28;20064;-94
2022/06/01 13:46:16;;;;;;;1.23;0.82;;;18.00;74.70;;;;;;5036497;28;20176;-94
2022/06/01 13:48:53;;;;;;;3.25;1.35;;;18.00;75.20;;;;;;5051251;28;20116;-95
2022/06/01 13:51:31;;;;;;;2.42;1.10;;;18.00;75.20;;;;;;5052729;28;20286;-94
2022/06/01 13:53:59;;;;;;;2.40;1.42;;;18.00;75.70;;;;;;5048046;28;20088;-96
2022/06/01 13:56:40;;;;;;;2.20;1.40;;;18.10;75.60;;;;;;5050859;28;20030;-95
2022/06/01 13:59:27;;;;;;;1.20;1.10;;;18.20;75.40;;;;;;5050578;28;20033;-94